Time;durP1;ratioP1;P1;durP2;ratioP2;P2;SDS_P1;SDS_P2;PMS_P1;PMS_P2;Temp;Humidity;BMP_temperature;BMP_pressure;BME280_temperature;BME280_humidity;BME280_pressure;Samples;Min_cycle;Max_cycle;Signal;HPM_P1;HPM_P2
2021/10/29 00:00:34;;;;;;;2.42;1.50;;;21.40;54.00;;;;;;6267257;28;20051;-67
2021/10/29 00:03:35;;;;;;;2.53;1.60;;;21.40;54.00;;;;;;6245562;28;20022;-67
2021/10/29 00:06:35;;;;;;;2.35;1.67;;;21.50;54.00;;;;;;6242315;28;20029;-68
2021/10/29 00:09:36;;;;;;;2.53;1.73;;;21.40;53.90;;;;;;6242151;28;20026;-67
2021/10/29 00:12:36;;;;;;;2.25;1.80;;;21.40;54.00;;;;;;6242008;28;20060;-68
2021/10/29 00:15:38;;;;;;;2.15;1.70;;;21.40;53.90;;;;;;6242371;28;20029;-67
2021/10/29 00:18:38;;;;;;;3.22;1.90;;;21.40;54.00;;;;;;6242282;28;20073;-68
2021/10/29 00:21:39;;;;;;;2.65;1.90;;;21.40;53.90;;;;;;6242222;28;20022;-68
2021/10/29 00:24:40;;;;;;;3.97;1.90;;;21.40;54.00;;;;;;6266236;28;20080;-67
2021/10/29 00:27:41;;;;;;;2.97;1.80;;;21.40;54.00;;;;;;6266394;28;20462;-67
2021/10/29 00:30:42;;;;;;;2.33;1.70;;;21.40;53.90;;;;;;6265733;28;20030;-67
2021/10/29 00:33:42;;;;;;;2.15;1.70;;;21.40;54.00;;;;;;6265335;28;20067;-67
2021/10/29 00:36:43;;;;;;;2.85;1.90;;;21.40;53.90;;;;;;6266699;28;20033;-67
2021/10/29 00:39:44;;;;;;;2.17;1.88;;;21.40;54.00;;;;;;6266540;28;20052;-67
2021/10/29 00:42:44;;;;;;;2.65;1.80;;;21.40;54.00;;;;;;6252961;28;20032;-67
2021/10/29 00:45:45;;;;;;;2.22;1.80;;;21.40;54.00;;;;;;6247037;28;20036;-66
2021/10/29 00:48:46;;;;;;;1.98;1.73;;;21.40;53.90;;;;;;6264738;28;20024;-67
2021/10/29 00:51:47;;;;;;;2.85;1.73;;;21.40;54.00;;;;;;6262753;28;20040;-67
2021/10/29 00:54:47;;;;;;;2.00;1.60;;;21.40;54.00;;;;;;6246460;28;20699;-68
2021/10/29 00:57:50;;;;;;;2.00;1.60;;;21.40;54.00;;;;;;6262003;28;20036;-67
2021/10/29 01:00:51;;;;;;;2.97;1.77;;;21.40;54.00;;;;;;6270227;28;20017;-67
2021/10/29 01:03:51;;;;;;;2.42;1.80;;;21.50;54.10;;;;;;6245694;28;20506;-67
2021/10/29 01:06:52;;;;;;;2.75;2.15;;;21.50;54.00;;;;;;6250666;28;20029;-67
2021/10/29 01:09:53;;;;;;;2.28;1.83;;;21.50;54.00;;;;;;6270439;28;20021;-67
2021/10/29 01:12:54;;;;;;;1.98;1.42;;;21.40;54.00;;;;;;6258237;28;20076;-68
2021/10/29 01:15:56;;;;;;;2.63;1.80;;;21.40;54.00;;;;;;6246238;28;20025;-67
2021/10/29 01:18:56;;;;;;;2.20;1.80;;;21.40;53.90;;;;;;6246992;28;20556;-67
2021/10/29 01:21:57;;;;;;;2.20;1.60;;;21.40;54.00;;;;;;6245826;28;20074;-68
2021/10/29 01:24:58;;;;;;;1.85;1.65;;;21.40;54.00;;;;;;6245747;28;20087;-68
2021/10/29 01:27:58;;;;;;;3.58;1.90;;;21.40;54.00;;;;;;6267813;28;20025;-66
2021/10/29 01:30:59;;;;;;;3.03;2.20;;;21.40;54.00;;;;;;6264602;28;20137;-67
2021/10/29 01:34:00;;;;;;;2.65;1.80;;;21.40;54.00;;;;;;6244451;28;20261;-67
2021/10/29 01:37:01;;;;;;;2.13;1.60;;;21.40;54.00;;;;;;6257599;28;20084;-66
2021/10/29 01:40:02;;;;;;;2.13;1.80;;;21.40;54.00;;;;;;6270094;28;20028;-66
2021/10/29 01:43:04;;;;;;;2.30;1.60;;;21.40;54.00;;;;;;6269332;28;20048;-66
2021/10/29 01:46:05;;;;;;;2.22;1.88;;;21.40;54.00;;;;;;6269130;28;20100;-66
2021/10/29 01:49:05;;;;;;;2.53;1.88;;;21.40;54.00;;;;;;6245180;28;20552;-66
2021/10/29 01:52:07;;;;;;;2.05;1.60;;;21.40;54.00;;;;;;6243802;28;20104;-66
2021/10/29 01:55:08;;;;;;;3.00;1.90;;;21.40;54.00;;;;;;6245344;28;20187;-66
2021/10/29 01:58:09;;;;;;;3.03;1.92;;;21.40;54.00;;;;;;6263806;28;20470;-67
2021/10/29 02:01:09;;;;;;;2.42;1.90;;;21.40;54.00;;;;;;6267928;28;20029;-67
2021/10/29 02:04:10;;;;;;;2.70;1.77;;;21.40;54.00;;;;;;6244253;28;20096;-66
2021/10/29 02:07:11;;;;;;;3.35;2.38;;;21.40;54.00;;;;;;6250792;28;20017;-66
2021/10/29 02:10:12;;;;;;;2.05;1.75;;;21.40;54.00;;;;;;6269139;28;20031;-66
2021/10/29 02:13:12;;;;;;;2.67;1.70;;;21.40;54.00;;;;;;6268742;28;20029;-66
2021/10/29 02:16:13;;;;;;;2.15;1.80;;;21.40;54.00;;;;;;6245556;28;20533;-66
2021/10/29 02:19:14;;;;;;;2.50;1.80;;;21.40;54.00;;;;;;6243752;28;20584;-66
2021/10/29 02:22:15;;;;;;;2.58;1.92;;;21.40;54.00;;;;;;6262881;28;20029;-66
2021/10/29 02:25:16;;;;;;;2.17;1.67;;;21.40;54.00;;;;;;6260714;28;20029;-66
2021/10/29 02:28:19;;;;;;;2.13;1.65;;;21.40;54.00;;;;;;6243038;28;20079;-66
2021/10/29 02:31:20;;;;;;;2.70;1.75;;;21.40;54.00;;;;;;6242505;28;20025;-66
2021/10/29 02:34:20;;;;;;;2.00;1.80;;;21.40;54.00;;;;;;6243251;28;20033;-66
2021/10/29 02:37:21;;;;;;;2.47;1.77;;;21.40;54.00;;;;;;6242927;28;20033;-66
2021/10/29 02:40:21;;;;;;;2.67;1.90;;;21.40;54.10;;;;;;6243164;28;20033;-66
2021/10/29 02:43:22;;;;;;;2.25;1.63;;;21.40;54.00;;;;;;6253014;28;20039;-66
2021/10/29 02:46:23;;;;;;;3.40;2.17;;;21.50;54.10;;;;;;6239052;28;20700;-66
2021/10/29 02:49:24;;;;;;;1.70;1.50;;;21.40;54.10;;;;;;6236282;28;20031;-66
2021/10/29 02:52:25;;;;;;;2.55;2.10;;;21.40;54.10;;;;;;6255771;28;20025;-66
2021/10/29 02:55:25;;;;;;;2.28;1.90;;;21.40;54.10;;;;;;6257550;28;20036;-67
2021/10/29 02:58:28;;;;;;;2.78;1.83;;;21.40;54.10;;;;;;6263212;28;20029;-67
2021/10/29 03:01:28;;;;;;;3.08;1.70;;;21.40;54.10;;;;;;6266965;28;20017;-66
2021/10/29 03:04:29;;;;;;;2.60;1.75;;;21.40;54.10;;;;;;6266157;28;20112;-67
2021/10/29 03:07:30;;;;;;;2.15;1.52;;;21.40;54.00;;;;;;6257075;28;20112;-66
2021/10/29 03:10:32;;;;;;;2.50;1.90;;;21.40;54.10;;;;;;6242935;28;20029;-66
2021/10/29 03:13:32;;;;;;;2.42;1.77;;;21.40;54.10;;;;;;6259882;28;20123;-66
2021/10/29 03:16:33;;;;;;;2.42;1.60;;;21.40;54.10;;;;;;6267248;28;20033;-66
2021/10/29 03:19:34;;;;;;;2.00;1.67;;;21.40;54.00;;;;;;6241152;28;20660;-67
2021/10/29 03:22:34;;;;;;;1.58;1.48;;;21.40;54.10;;;;;;6250534;28;20453;-66
2021/10/29 03:25:35;;;;;;;2.03;1.65;;;21.40;54.10;;;;;;6266400;28;20104;-66
2021/10/29 03:28:36;;;;;;;2.17;1.80;;;21.40;54.00;;;;;;6267087;28;20033;-66
2021/10/29 03:31:36;;;;;;;1.98;1.58;;;21.40;54.00;;;;;;6255743;28;20406;-66
2021/10/29 03:34:37;;;;;;;1.92;1.60;;;21.40;54.00;;;;;;6242084;28;20056;-66
2021/10/29 03:38:05;;;;;;;1.90;1.50;;;21.40;54.00;;;;;;6260154;28;20025;-66
2021/10/29 03:41:10;;;;;;;2.55;1.77;;;21.40;54.10;;;;;;6265456;28;20055;-66
2021/10/29 03:47:32;;;;;;;2.28;1.70;;;21.40;54.00;;;;;;6229330;28;20034;-66
2021/10/29 03:50:35;;;;;;;2.55;1.98;;;21.40;54.10;;;;;;6218018;28;20471;-66
2021/10/29 03:56:45;;;;;;;2.25;1.80;;;21.40;54.10;;;;;;6256755;28;20024;-66
2021/10/29 04:00:36;;;;;;;2.42;1.70;;;21.40;54.10;;;;;;6266575;28;20106;-66
2021/10/29 04:03:36;;;;;;;2.83;1.77;;;21.40;54.10;;;;;;6265403;28;20428;-66
2021/10/29 04:06:37;;;;;;;2.72;1.92;;;21.40;54.10;;;;;;6265780;28;20033;-66
2021/10/29 04:09:37;;;;;;;2.08;1.85;;;21.40;54.10;;;;;;6265052;28;20515;-66
2021/10/29 04:12:38;;;;;;;2.72;1.90;;;21.40;54.10;;;;;;6265349;28;20242;-66
2021/10/29 04:15:40;;;;;;;1.92;1.70;;;21.40;54.10;;;;;;6267135;28;20025;-66
2021/10/29 04:18:42;;;;;;;2.13;1.90;;;21.40;54.00;;;;;;6254653;28;20517;-67
2021/10/29 04:21:42;;;;;;;2.13;1.73;;;21.40;54.10;;;;;;6243771;28;20022;-66
2021/10/29 04:24:43;;;;;;;2.00;1.60;;;21.40;54.10;;;;;;6269725;28;20055;-66
2021/10/29 04:27:47;;;;;;;1.90;1.70;;;21.40;54.10;;;;;;6245766;28;20387;-66
2021/10/29 04:30:48;;;;;;;2.00;1.77;;;21.40;54.10;;;;;;6246190;28;20025;-66
2021/10/29 04:33:50;;;;;;;1.90;1.67;;;21.40;54.10;;;;;;6251424;28;20025;-66
2021/10/29 04:36:52;;;;;;;2.33;1.90;;;21.40;54.10;;;;;;6250608;28;20030;-67
2021/10/29 04:39:54;;;;;;;2.45;1.90;;;21.40;54.10;;;;;;6221799;28;20488;-66
2021/10/29 04:42:55;;;;;;;2.13;1.70;;;21.40;54.10;;;;;;6258955;28;20021;-66
2021/10/29 04:45:55;;;;;;;2.63;1.85;;;21.40;54.10;;;;;;6265033;28;20465;-66
2021/10/29 04:48:56;;;;;;;2.58;1.80;;;21.40;54.10;;;;;;6221600;28;20036;-66
2021/10/29 04:51:58;;;;;;;2.38;2.00;;;21.40;54.10;;;;;;6231486;28;20013;-66
2021/10/29 04:54:59;;;;;;;2.05;1.67;;;21.40;54.10;;;;;;6245865;28;20033;-66
2021/10/29 04:57:59;;;;;;;2.30;1.90;;;21.40;54.10;;;;;;6260452;28;20056;-66
2021/10/29 05:01:00;;;;;;;2.50;1.73;;;21.40;54.10;;;;;;6244032;28;20029;-66
2021/10/29 05:04:01;;;;;;;1.80;1.50;;;21.40;54.20;;;;;;6221467;28;20034;-66
2021/10/29 05:07:02;;;;;;;2.60;1.58;;;21.40;54.10;;;;;;6233870;28;20021;-67
2021/10/29 05:10:04;;;;;;;2.10;1.73;;;21.40;54.10;;;;;;6270895;28;20096;-66
2021/10/29 05:13:05;;;;;;;1.92;1.63;;;21.40;54.10;;;;;;6231652;28;20076;-66
2021/10/29 05:16:06;;;;;;;2.10;1.67;;;21.40;54.10;;;;;;6221882;28;20303;-67
2021/10/29 05:19:06;;;;;;;3.22;2.05;;;21.40;54.10;;;;;;6241649;28;20039;-66
2021/10/29 05:22:08;;;;;;;2.88;2.00;;;21.40;54.10;;;;;;6245499;28;20029;-66
2021/10/29 05:25:09;;;;;;;2.60;1.80;;;21.40;54.10;;;;;;6264901;28;20069;-66
2021/10/29 05:28:09;;;;;;;2.45;1.88;;;21.40;54.10;;;;;;6268148;28;20071;-66
2021/10/29 05:31:11;;;;;;;2.15;1.77;;;21.40;54.10;;;;;;6268243;28;20502;-66
2021/10/29 05:34:12;;;;;;;2.30;2.05;;;21.40;54.20;;;;;;6269433;28;20025;-66
2021/10/29 05:37:12;;;;;;;3.40;2.05;;;21.40;54.10;;;;;;6249431;28;20055;-66
2021/10/29 05:40:13;;;;;;;3.45;2.17;;;21.40;54.10;;;;;;6245052;28;20498;-68
2021/10/29 05:43:14;;;;;;;2.78;1.90;;;21.40;54.10;;;;;;6227966;28;20026;-67
2021/10/29 05:46:14;;;;;;;2.25;1.70;;;21.40;54.10;;;;;;6225232;28;20112;-67
2021/10/29 05:49:15;;;;;;;3.13;2.05;;;21.40;54.10;;;;;;6243513;28;20026;-67
2021/10/29 05:52:19;;;;;;;2.85;1.83;;;21.40;54.10;;;;;;6245922;28;20525;-66
2021/10/29 05:55:20;;;;;;;2.30;1.73;;;21.40;54.10;;;;;;6267465;28;20710;-67
2021/10/29 05:58:20;;;;;;;11.30;4.35;;;21.40;54.10;;;;;;6265910;28;20029;-67
2021/10/29 06:01:21;;;;;;;9.32;5.07;;;21.40;53.70;;;;;;6237820;28;20022;-67
2021/10/29 06:04:21;;;;;;;9.10;4.20;;;21.30;53.40;;;;;;6235504;28;20030;-67
2021/10/29 06:07:22;;;;;;;11.63;4.55;;;21.30;52.50;;;;;;6231272;28;20029;-67
2021/10/29 06:10:23;;;;;;;10.35;5.43;;;21.40;52.90;;;;;;6228933;28;20183;-67
2021/10/29 06:13:23;;;;;;;11.48;4.50;;;21.40;51.90;;;;;;6235448;28;20202;-67
2021/10/29 06:16:24;;;;;;;8.65;4.43;;;21.40;51.80;;;;;;6256635;28;20132;-67
2021/10/29 06:19:25;;;;;;;6.15;4.30;;;21.40;51.90;;;;;;6267342;28;20067;-67
2021/10/29 06:22:29;;;;;;;6.15;4.40;;;21.40;52.00;;;;;;6268706;28;20383;-67
2021/10/29 06:25:31;;;;;;;5.57;3.90;;;21.40;52.10;;;;;;6252430;28;20029;-68
2021/10/29 06:28:32;;;;;;;7.60;3.97;;;21.40;52.20;;;;;;6259801;28;20524;-68
2021/10/29 06:31:34;;;;;;;8.13;4.30;;;21.40;52.30;;;;;;6248650;28;20033;-67
2021/10/29 06:34:35;;;;;;;6.05;3.67;;;21.40;52.40;;;;;;6244776;28;20026;-67
2021/10/29 06:37:36;;;;;;;6.40;3.55;;;21.40;52.50;;;;;;6238157;28;20379;-67
2021/10/29 06:40:47;;;;;;;6.30;3.33;;;21.40;52.60;;;;;;6238248;28;20060;-67
2021/10/29 06:44:05;;;;;;;4.43;3.60;;;21.40;52.60;;;;;;6267508;28;20032;-67
2021/10/29 06:59:13;;;;;;;6.70;3.65;;;21.40;52.80;;;;;;6246995;28;20029;-68
2021/10/29 07:43:32;;;;;;;9.13;4.50;;;21.40;51.70;;;;;;6239640;28;20030;-68
2021/10/29 07:46:33;;;;;;;10.50;4.50;;;21.40;51.90;;;;;;6226329;28;20104;-68
2021/10/29 07:49:33;;;;;;;7.25;4.80;;;21.40;52.10;;;;;;6266971;28;20025;-71
2021/10/29 07:52:36;;;;;;;8.65;4.28;;;21.50;52.30;;;;;;6266705;28;20682;-70
2021/10/29 07:55:37;;;;;;;11.63;4.75;;;21.40;52.30;;;;;;6261735;28;20036;-72
2021/10/29 07:58:38;;;;;;;9.65;4.70;;;21.50;51.90;;;;;;6244562;28;20018;-72
2021/10/29 08:01:39;;;;;;;10.52;5.00;;;21.50;51.70;;;;;;6246306;28;20111;-73
2021/10/29 08:04:39;;;;;;;9.02;4.55;;;21.50;51.50;;;;;;6242903;28;20045;-72
2021/10/29 08:07:41;;;;;;;9.60;4.40;;;21.50;51.40;;;;;;6231247;28;20080;-71
2021/10/29 08:10:41;;;;;;;7.60;3.85;;;21.50;51.50;;;;;;6240280;28;20048;-73
2021/10/29 08:13:42;;;;;;;7.25;3.90;;;21.50;51.60;;;;;;6240391;28;20029;-73
2021/10/29 08:16:43;;;;;;;6.13;4.13;;;21.50;51.80;;;;;;6229037;28;20395;-74
2021/10/29 08:19:44;;;;;;;6.63;4.30;;;21.50;51.90;;;;;;6248672;28;20025;-75
2021/10/29 08:22:45;;;;;;;8.18;4.07;;;21.50;52.00;;;;;;6249539;28;20029;-73
2021/10/29 08:25:45;;;;;;;5.93;3.90;;;21.50;52.10;;;;;;6246663;28;20034;-72
2021/10/29 08:28:47;;;;;;;7.10;3.75;;;21.50;52.20;;;;;;6242060;28;20063;-73
2021/10/29 08:31:48;;;;;;;5.15;3.72;;;21.50;52.20;;;;;;6242170;28;20025;-72
2021/10/29 08:34:48;;;;;;;9.95;4.10;;;21.50;52.30;;;;;;6238083;28;20109;-73
2021/10/29 08:37:50;;;;;;;7.80;3.60;;;21.50;52.30;;;;;;6244632;28;20075;-73
2021/10/29 08:40:51;;;;;;;8.20;4.60;;;21.50;52.40;;;;;;6243625;28;20057;-73
2021/10/29 08:43:52;;;;;;;8.98;5.15;;;21.50;52.60;;;;;;6244157;28;20032;-74
2021/10/29 08:46:53;;;;;;;10.45;6.15;;;21.50;52.40;;;;;;6245359;28;20581;-74
2021/10/29 08:49:54;;;;;;;10.35;6.13;;;21.40;51.80;;;;;;6244451;28;20439;-74
2021/10/29 08:52:54;;;;;;;12.07;5.88;;;21.40;51.20;;;;;;6260115;28;20029;-74
2021/10/29 08:56:00;;;;;;;11.63;6.68;;;21.40;50.60;;;;;;6269123;28;20040;-74
2021/10/29 08:59:01;;;;;;;10.40;5.60;;;21.40;50.20;;;;;;6268676;28;20021;-74
2021/10/29 09:08:37;;;;;;;6.95;4.45;;;21.40;50.30;;;;;;6246490;28;20053;-74
2021/10/29 09:32:29;;;;;;;6.65;3.97;;;21.40;51.10;;;;;;6264330;28;20064;-74
2021/10/29 09:35:34;;;;;;;5.70;4.20;;;21.40;51.20;;;;;;6271281;28;20394;-73
2021/10/29 09:38:34;;;;;;;8.88;4.18;;;21.40;51.20;;;;;;6221575;28;20030;-73
2021/10/29 09:41:36;;;;;;;6.28;4.20;;;21.40;51.20;;;;;;6239346;28;20449;-74
2021/10/29 09:44:46;;;;;;;5.75;4.20;;;21.40;51.20;;;;;;6272113;28;20033;-73
2021/10/29 09:47:57;;;;;;;6.30;4.00;;;21.40;51.30;;;;;;6256576;28;20025;-74
2021/10/29 09:50:59;;;;;;;6.25;4.10;;;21.40;51.30;;;;;;6244283;28;20033;-74
2021/10/29 09:54:38;;;;;;;5.65;3.67;;;21.40;51.60;;;;;;6247078;28;20105;-74
2021/10/29 09:57:27;;;;;;;5.55;4.00;;;21.40;51.40;;;;;;6245836;28;20038;-74
2021/10/29 10:00:30;;;;;;;5.28;3.65;;;21.40;51.50;;;;;;6246082;28;20037;-74
2021/10/29 10:03:31;;;;;;;5.30;3.85;;;21.40;51.60;;;;;;6266714;28;20025;-73
2021/10/29 10:06:37;;;;;;;4.25;3.50;;;21.40;51.60;;;;;;6270522;28;20488;-73
2021/10/29 10:09:39;;;;;;;4.63;3.08;;;21.40;51.60;;;;;;6271389;28;20059;-72
2021/10/29 10:12:42;;;;;;;4.82;3.72;;;21.40;51.70;;;;;;6271055;28;20033;-70
2021/10/29 10:15:50;;;;;;;5.65;3.22;;;21.40;51.70;;;;;;6269863;28;20029;-74
2021/10/29 10:18:51;;;;;;;4.60;3.10;;;21.40;51.70;;;;;;6252559;28;20368;-71
2021/10/29 10:21:55;;;;;;;4.07;3.20;;;21.40;51.70;;;;;;6246789;28;20021;-71
2021/10/29 10:25:04;;;;;;;5.00;3.22;;;21.40;51.70;;;;;;6269705;28;20037;-71
2021/10/29 10:42:16;;;;;;;4.25;2.90;;;21.40;51.90;;;;;;6261440;28;20064;-70
2021/10/29 10:49:09;;;;;;;3.88;2.92;;;21.40;51.90;;;;;;6218958;28;20018;-71
2021/10/29 10:52:17;;;;;;;3.88;3.20;;;21.40;52.00;;;;;;6242739;28;20072;-69
2021/10/29 10:55:23;;;;;;;3.85;3.17;;;21.40;52.00;;;;;;6270447;28;20111;-71
2021/10/29 11:09:54;;;;;;;3.42;2.70;;;21.40;52.10;;;;;;6256228;28;20029;-71
2021/10/29 11:12:00;;;;;;;3.67;3.03;;;21.40;52.00;;;;;;6269837;28;20044;-71
2021/10/29 11:15:09;;;;;;;3.92;2.90;;;21.40;52.10;;;;;;6270389;28;20029;-71
2021/10/29 11:18:16;;;;;;;4.25;2.95;;;21.40;52.10;;;;;;6257412;28;20025;-70
2021/10/29 11:21:33;;;;;;;3.90;2.83;;;21.50;52.20;;;;;;6245582;28;20053;-71
2021/10/29 11:24:40;;;;;;;3.35;2.63;;;21.40;52.10;;;;;;6268306;28;20514;-71
2021/10/29 11:27:42;;;;;;;3.92;3.00;;;21.50;52.20;;;;;;6268667;28;20383;-71
2021/10/29 11:30:44;;;;;;;3.72;2.67;;;21.40;52.10;;;;;;6265447;28;20021;-71
2021/10/29 11:33:48;;;;;;;3.78;2.65;;;21.40;52.20;;;;;;6243997;28;20033;-71
2021/10/29 11:36:51;;;;;;;3.88;3.03;;;21.40;52.20;;;;;;6245401;28;20037;-71
2021/10/29 11:39:52;;;;;;;3.35;2.72;;;21.50;52.30;;;;;;6245078;28;20025;-70
2021/10/29 11:42:54;;;;;;;3.97;3.00;;;21.40;52.20;;;;;;6262008;28;20029;-71
2021/10/29 11:45:56;;;;;;;3.60;2.85;;;21.40;52.20;;;;;;6269676;28;20028;-70
2021/10/29 11:49:04;;;;;;;3.28;2.75;;;21.40;52.20;;;;;;6244010;28;20063;-71
2021/10/29 11:52:08;;;;;;;2.70;2.40;;;21.50;52.30;;;;;;6235665;28;20025;-72
2021/10/29 11:55:29;;;;;;;3.50;2.65;;;21.40;52.30;;;;;;6220599;28;20022;-72
2021/10/29 11:58:53;;;;;;;3.05;2.72;;;21.50;52.30;;;;;;6278242;28;20029;-71
2021/10/29 12:08:27;;;;;;;3.65;2.65;;;21.50;52.40;;;;;;6253449;28;20108;-71
2021/10/29 12:11:30;;;;;;;2.60;2.28;;;21.40;52.30;;;;;;6267836;28;20405;-72
2021/10/29 12:14:41;;;;;;;2.75;2.35;;;21.50;52.40;;;;;;6268941;28;20126;-71
2021/10/29 12:17:57;;;;;;;3.78;2.58;;;21.50;53.10;;;;;;6260941;28;20475;-72
2021/10/29 12:20:58;;;;;;;3.90;2.70;;;21.50;52.40;;;;;;6244780;28;20447;-71
2021/10/29 12:24:02;;;;;;;3.40;2.50;;;21.50;53.10;;;;;;6244203;28;20053;-71
2021/10/29 12:27:13;;;;;;;3.65;2.70;;;21.50;52.50;;;;;;6264465;28;20124;-71
2021/10/29 12:30:29;;;;;;;2.28;2.08;;;21.50;52.50;;;;;;6257652;28;20621;-73
2021/10/29 12:34:05;;;;;;;7.68;2.70;;;21.40;52.40;;;;;;6241092;28;20120;-71
2021/10/29 13:04:39;;;;;;;6.28;2.92;;;21.50;52.90;;;;;;6238569;28;20029;-71
2021/10/29 13:07:41;;;;;;;5.35;2.95;;;21.50;52.70;;;;;;6238655;28;20025;-70
2021/10/29 13:10:42;;;;;;;8.45;2.40;;;21.50;52.80;;;;;;6253605;28;20391;-69
2021/10/29 13:14:03;;;;;;;7.80;2.70;;;21.50;52.90;;;;;;6249837;28;20140;-70
2021/10/29 13:17:07;;;;;;;5.35;2.72;;;21.50;53.00;;;;;;6224073;28;20092;-67
2021/10/29 13:59:40;;;;;;;12.07;5.93;;;21.50;50.60;;;;;;6224198;28;20026;-69
2021/10/29 14:29:21;;;;;;;16.92;9.00;;;21.40;47.90;;;;;;6229389;28;20030;-72
2021/10/29 14:32:27;;;;;;;14.15;8.35;;;21.40;47.70;;;;;;6238264;28;20472;-72
2021/10/29 14:38:42;;;;;;;15.82;8.48;;;21.40;48.00;;;;;;6237651;28;20033;-73
2021/10/29 14:42:29;;;;;;;15.32;8.45;;;21.40;48.20;;;;;;6235892;28;20033;-72
2021/10/29 14:45:16;;;;;;;10.50;7.22;;;21.40;48.40;;;;;;6256820;28;20029;-72
2021/10/29 14:48:34;;;;;;;11.98;6.95;;;21.40;48.70;;;;;;6256618;28;20017;-72
2021/10/29 14:51:56;;;;;;;11.93;7.47;;;21.40;48.90;;;;;;6260669;28;20032;-72
2021/10/29 15:47:05;;;;;;;54.63;25.23;;;21.40;48.90;;;;;;6253230;28;20157;-73
2021/10/29 15:50:10;;;;;;;58.55;27.98;;;21.40;48.30;;;;;;6241077;28;20055;-74
2021/10/29 15:53:13;;;;;;;54.47;26.48;;;21.40;48.50;;;;;;6251329;28;20040;-74
2021/10/29 15:56:22;;;;;;;78.72;36.08;;;21.40;48.80;;;;;;6244804;28;20498;-76
2021/10/29 16:18:48;;;;;;;52.60;27.25;;;21.40;50.60;;;;;;6242445;28;20033;-72
2021/10/29 16:21:48;;;;;;;48.50;27.90;;;21.40;50.70;;;;;;6230988;28;20104;-70
2021/10/29 16:25:14;;;;;;;49.35;25.70;;;21.40;51.00;;;;;;6261109;28;20030;-71
2021/10/29 16:28:13;;;;;;;48.05;24.88;;;21.40;51.10;;;;;;6268496;28;20441;-71
2021/10/29 16:31:14;;;;;;;44.65;23.02;;;21.40;51.20;;;;;;6250970;28;20522;-70
2021/10/29 16:34:14;;;;;;;45.75;25.42;;;21.40;51.40;;;;;;6260067;28;20030;-70
2021/10/29 16:37:15;;;;;;;44.58;23.90;;;21.40;51.50;;;;;;6263937;28;20116;-71
2021/10/29 16:40:16;;;;;;;44.67;22.98;;;21.40;51.60;;;;;;6254917;28;20454;-70
2021/10/29 16:43:18;;;;;;;43.28;22.40;;;21.40;51.60;;;;;;6265374;28;20040;-70
2021/10/29 16:46:19;;;;;;;36.58;21.23;;;21.40;51.70;;;;;;6248913;28;20029;-70
2021/10/29 16:49:22;;;;;;;39.88;20.95;;;21.40;51.70;;;;;;6261934;28;20029;-70
2021/10/29 16:52:26;;;;;;;35.63;18.45;;;21.40;51.70;;;;;;6271379;28;20049;-71
2021/10/29 16:55:27;;;;;;;32.50;18.65;;;21.50;51.80;;;;;;6251983;28;20060;-73
2021/10/29 16:58:28;;;;;;;30.05;16.10;;;21.50;52.00;;;;;;6237931;28;20149;-74
2021/10/29 17:01:34;;;;;;;32.75;16.92;;;21.50;52.10;;;;;;6224000;28;20037;-72
2021/10/29 17:04:36;;;;;;;24.95;13.50;;;21.50;52.10;;;;;;6231916;28;20029;-73
2021/10/29 17:07:37;;;;;;;25.23;13.00;;;21.50;52.10;;;;;;6241962;28;20032;-73
2021/10/29 17:10:38;;;;;;;24.33;12.73;;;21.50;52.10;;;;;;6246183;28;20530;-73
2021/10/29 17:13:40;;;;;;;26.23;11.73;;;21.50;52.20;;;;;;6262062;28;20520;-73
2021/10/29 17:16:41;;;;;;;24.00;11.80;;;21.50;52.20;;;;;;6247370;28;20052;-74
2021/10/29 17:19:42;;;;;;;21.52;10.60;;;21.50;52.30;;;;;;6243263;28;20052;-72
2021/10/29 17:22:42;;;;;;;21.98;9.60;;;21.50;52.30;;;;;;6240120;28;20055;-73
2021/10/29 17:25:43;;;;;;;15.15;9.50;;;21.50;52.30;;;;;;6254775;28;20068;-72
2021/10/29 17:28:43;;;;;;;14.68;8.75;;;21.50;52.40;;;;;;6241492;28;20072;-72
2021/10/29 17:31:44;;;;;;;15.15;8.57;;;21.50;52.40;;;;;;6247221;28;20026;-72
2021/10/29 17:34:45;;;;;;;13.10;8.23;;;21.50;52.50;;;;;;6254946;28;20025;-72
2021/10/29 17:37:48;;;;;;;13.27;7.30;;;21.50;52.50;;;;;;6266305;28;20441;-72
2021/10/29 17:40:49;;;;;;;11.52;7.68;;;21.50;52.60;;;;;;6243995;28;20455;-73
2021/10/29 17:43:49;;;;;;;13.63;8.13;;;21.50;52.60;;;;;;6250301;28;20033;-74
2021/10/29 17:46:50;;;;;;;11.80;7.53;;;21.50;52.60;;;;;;6253450;28;20366;-72
2021/10/29 17:49:51;;;;;;;11.68;7.43;;;21.50;53.40;;;;;;6265649;28;20021;-72
2021/10/29 17:52:52;;;;;;;9.82;6.90;;;21.50;52.60;;;;;;6238789;28;20111;-71
2021/10/29 17:55:53;;;;;;;11.82;7.32;;;21.50;52.70;;;;;;6236457;28;20315;-72
2021/10/29 17:58:55;;;;;;;10.88;6.78;;;21.50;52.70;;;;;;6247927;28;20037;-72
2021/10/29 18:01:56;;;;;;;9.43;6.20;;;21.50;52.80;;;;;;6237114;28;20485;-72
2021/10/29 18:04:58;;;;;;;10.75;6.03;;;21.50;52.80;;;;;;6247356;28;20033;-72
2021/10/29 18:08:04;;;;;;;11.82;6.30;;;21.50;52.80;;;;;;6238506;28;20077;-72
2021/10/29 18:11:06;;;;;;;10.00;6.22;;;21.50;52.80;;;;;;6243313;28;20346;-72
2021/10/29 18:14:07;;;;;;;10.63;6.57;;;21.50;52.80;;;;;;6247683;28;20251;-71
2021/10/29 18:17:10;;;;;;;9.85;5.70;;;21.50;52.80;;;;;;6242740;28;20026;-71
2021/10/29 18:20:10;;;;;;;8.82;6.18;;;21.50;52.80;;;;;;6245259;28;20036;-70
2021/10/29 18:23:11;;;;;;;8.20;5.97;;;21.50;52.80;;;;;;6250797;28;20391;-71
2021/10/29 18:26:11;;;;;;;8.57;5.50;;;21.50;52.80;;;;;;6250161;28;20036;-71
2021/10/29 18:29:12;;;;;;;10.55;5.65;;;21.50;52.80;;;;;;6243274;28;20535;-71
2021/10/29 18:32:14;;;;;;;10.00;5.38;;;21.50;52.80;;;;;;6253103;28;20608;-71
2021/10/29 18:35:14;;;;;;;7.05;5.28;;;21.50;52.90;;;;;;6241174;28;20156;-71
2021/10/29 18:38:15;;;;;;;8.52;5.38;;;21.50;52.80;;;;;;6241551;28;20025;-71
2021/10/29 18:41:16;;;;;;;8.10;5.07;;;21.50;52.80;;;;;;6248319;28;20025;-71
2021/10/29 18:44:17;;;;;;;7.57;4.90;;;21.50;52.80;;;;;;6241778;28;20034;-71
2021/10/29 18:47:18;;;;;;;8.55;5.72;;;21.50;52.80;;;;;;6247094;28;20022;-71
2021/10/29 18:50:19;;;;;;;9.38;4.97;;;21.50;52.80;;;;;;6241387;28;20518;-71
2021/10/29 18:53:19;;;;;;;7.35;5.18;;;21.50;52.80;;;;;;6247027;28;20029;-71
2021/10/29 18:56:20;;;;;;;7.07;4.95;;;21.50;52.80;;;;;;6227507;28;20117;-71
2021/10/29 18:59:21;;;;;;;6.72;4.80;;;21.50;52.70;;;;;;6241993;28;20023;-71
2021/10/29 19:02:22;;;;;;;6.70;4.63;;;21.50;52.70;;;;;;6254885;28;20029;-71
2021/10/29 19:05:22;;;;;;;5.97;4.63;;;21.50;52.70;;;;;;6268077;28;20059;-71
2021/10/29 19:08:24;;;;;;;9.82;5.20;;;21.50;52.80;;;;;;6266807;28;20394;-71
2021/10/29 19:11:31;;;;;;;5.95;4.80;;;21.50;52.70;;;;;;6267807;28;20120;-71
2021/10/29 19:14:33;;;;;;;6.60;4.60;;;21.50;52.70;;;;;;6244228;28;20017;-70
2021/10/29 19:17:34;;;;;;;7.20;4.47;;;21.50;52.70;;;;;;6244233;28;20025;-71
2021/10/29 19:20:36;;;;;;;6.57;4.43;;;21.50;52.70;;;;;;6241644;28;20082;-71
2021/10/29 19:23:37;;;;;;;6.28;4.63;;;21.50;52.70;;;;;;6260188;28;20025;-71
2021/10/29 19:26:38;;;;;;;7.78;4.60;;;21.50;52.70;;;;;;6255919;28;20075;-72
2021/10/29 19:29:38;;;;;;;5.68;4.60;;;21.50;52.70;;;;;;6243168;28;20037;-71
2021/10/29 19:32:39;;;;;;;6.60;4.38;;;21.40;52.60;;;;;;6259653;28;20021;-69
2021/10/29 19:35:39;;;;;;;5.80;4.32;;;21.50;52.70;;;;;;6265726;28;20028;-71
2021/10/29 19:38:40;;;;;;;5.55;4.60;;;21.50;52.70;;;;;;6242742;28;20018;-71
2021/10/29 19:41:41;;;;;;;5.57;4.38;;;21.40;52.60;;;;;;6250761;28;20057;-72
2021/10/29 19:44:42;;;;;;;5.38;4.13;;;21.50;52.70;;;;;;6242735;28;20038;-71
2021/10/29 19:47:43;;;;;;;5.30;4.25;;;21.40;52.60;;;;;;6244560;28;20017;-71
2021/10/29 19:50:49;;;;;;;5.30;4.40;;;21.40;52.60;;;;;;6242712;28;20454;-71
2021/10/29 19:53:51;;;;;;;5.50;4.25;;;21.40;52.60;;;;;;6217548;28;20434;-71
2021/10/29 19:56:53;;;;;;;5.13;4.03;;;21.50;52.70;;;;;;6244868;28;20444;-71
2021/10/29 19:59:53;;;;;;;5.82;4.43;;;21.50;52.70;;;;;;6242832;28;20026;-71
2021/10/29 20:02:54;;;;;;;5.25;4.43;;;21.50;52.70;;;;;;6257924;28;20032;-71
2021/10/29 20:05:54;;;;;;;5.72;4.35;;;21.40;52.60;;;;;;6261636;28;20033;-71
2021/10/29 20:08:55;;;;;;;5.45;4.10;;;21.50;52.70;;;;;;6265750;28;20544;-71
2021/10/29 20:11:55;;;;;;;5.43;4.15;;;21.40;52.60;;;;;;6249710;28;20037;-71
2021/10/29 20:14:58;;;;;;;5.72;4.30;;;21.50;52.70;;;;;;6267876;28;20029;-71
2021/10/29 20:18:02;;;;;;;5.50;4.30;;;21.40;52.60;;;;;;6256979;28;20018;-71
2021/10/29 20:21:02;;;;;;;4.75;3.88;;;21.40;52.60;;;;;;6241423;28;20458;-71
2021/10/29 20:24:04;;;;;;;4.25;3.72;;;21.40;52.60;;;;;;6264628;28;20021;-71
2021/10/29 20:27:05;;;;;;;5.65;3.92;;;21.50;52.70;;;;;;6259480;28;20066;-71
2021/10/29 20:30:06;;;;;;;7.15;4.18;;;21.40;52.60;;;;;;6266721;28;20051;-71
2021/10/29 20:33:08;;;;;;;5.03;4.10;;;21.40;52.60;;;;;;6266084;28;20436;-71
2021/10/29 20:36:09;;;;;;;4.78;3.88;;;21.40;53.40;;;;;;6265533;28;20029;-71